createdAt,value
2018-03-17T00:01:21.009Z,15.07
2018-03-17T00:03:47.898Z,14.40
2018-03-17T00:06:14.790Z,14.03
2018-03-17T00:08:41.641Z,16.73
2018-03-17T00:11:08.575Z,14.70
2018-03-17T00:13:35.424Z,14.47
2018-03-17T00:16:02.315Z,14.83
2018-03-17T00:18:29.205Z,16.10
2018-03-17T00:20:56.124Z,14.40
2018-03-17T00:23:22.981Z,14.30
2018-03-17T00:25:49.924Z,15.53
2018-03-17T00:28:16.785Z,14.73
2018-03-17T00:30:43.686Z,14.37
2018-03-17T00:33:10.608Z,15.07
2018-03-17T00:35:37.489Z,14.83
2018-03-17T00:38:04.364Z,15.20
2018-03-17T00:40:31.245Z,14.90
2018-03-17T00:42:58.563Z,14.67
2018-03-17T00:45:25.435Z,16.30
2018-03-17T00:47:52.319Z,16.77
2018-03-17T00:50:19.190Z,13.73
2018-03-17T00:52:46.481Z,15.40
2018-03-17T00:55:13.406Z,15.00
2018-03-17T00:57:40.705Z,15.73
2018-03-17T01:00:07.582Z,16.20
2018-03-17T01:02:34.516Z,15.23
2018-03-17T01:05:01.490Z,15.40
2018-03-17T01:07:28.354Z,16.00
2018-03-17T01:09:55.303Z,15.80
2018-03-17T01:12:22.165Z,16.10
2018-03-17T01:14:49.115Z,15.17
2018-03-17T01:17:16.141Z,15.50
2018-03-17T01:19:42.967Z,15.10
2018-03-17T01:22:09.843Z,16.57
2018-03-17T01:24:37.101Z,15.83
2018-03-17T01:27:04.440Z,14.23
2018-03-17T01:29:31.289Z,16.33
2018-03-17T01:31:58.153Z,14.50
2018-03-17T01:34:25.008Z,15.80
2018-03-17T01:36:51.870Z,16.37
2018-03-17T01:39:18.818Z,15.20
2018-03-17T01:41:45.693Z,16.33
2018-03-17T01:44:12.554Z,16.17
2018-03-17T01:46:39.487Z,16.20
2018-03-17T01:49:06.340Z,16.47
2018-03-17T01:51:33.221Z,15.70
2018-03-17T01:54:12.157Z,16.10
2018-03-17T01:56:39.102Z,15.83
2018-03-17T01:59:05.962Z,15.10
2018-03-17T02:01:32.920Z,14.93
2018-03-17T02:03:59.775Z,15.33
2018-03-17T02:06:26.634Z,16.03
2018-03-17T02:08:53.512Z,15.43
2018-03-17T02:11:20.358Z,15.73
2018-03-17T02:13:47.234Z,15.10
2018-03-17T02:16:14.155Z,16.47
2018-03-17T02:18:41.048Z,16.83
2018-03-17T02:21:07.991Z,18.27
2018-03-17T02:23:34.937Z,17.50
2018-03-17T02:26:01.989Z,17.10
2018-03-17T02:28:28.847Z,17.83
2018-03-17T02:30:55.710Z,18.23
2018-03-17T02:33:22.575Z,18.23
2018-03-17T02:35:49.452Z,17.93
2018-03-17T02:38:16.334Z,17.17
2018-03-17T02:40:43.205Z,17.83
2018-03-17T02:43:10.103Z,17.97
2018-03-17T02:45:37.081Z,16.97
2018-03-17T02:48:03.940Z,17.23
2018-03-17T02:50:30.893Z,17.37
2018-03-17T02:52:57.782Z,18.47
2018-03-17T02:55:24.626Z,16.70
2018-03-17T02:57:51.508Z,16.80
2018-03-17T03:00:18.378Z,16.63
2018-03-17T03:02:45.639Z,16.60
2018-03-17T03:05:12.909Z,16.87
2018-03-17T03:07:40.276Z,16.37
2018-03-17T03:10:07.608Z,17.07
2018-03-17T03:12:34.741Z,17.60
2018-03-17T03:15:01.601Z,17.13
2018-03-17T03:17:28.561Z,16.30
2018-03-17T03:19:56.122Z,17.70
2018-03-17T03:22:22.972Z,16.93
2018-03-17T03:24:49.946Z,16.30
2018-03-17T03:27:16.807Z,17.33
2018-03-17T03:29:43.665Z,16.43
2018-03-17T03:32:10.531Z,15.50
2018-03-17T03:34:37.398Z,15.27
2018-03-17T03:37:04.249Z,17.33
2018-03-17T03:39:31.204Z,15.27
2018-03-17T03:41:58.073Z,17.27
2018-03-17T03:44:25.008Z,15.30
2018-03-17T03:46:51.884Z,17.23
2018-03-17T03:49:18.742Z,15.73
2018-03-17T03:51:45.681Z,14.47
2018-03-17T03:54:12.537Z,16.40
2018-03-17T03:56:39.510Z,16.77
2018-03-17T03:59:06.456Z,16.70
2018-03-17T04:01:33.413Z,15.10
2018-03-17T04:04:00.307Z,15.37
2018-03-17T04:06:27.189Z,14.60
2018-03-17T04:08:54.470Z,15.90
2018-03-17T04:11:21.766Z,15.87
2018-03-17T04:13:48.621Z,15.50
2018-03-17T04:16:15.492Z,14.60
2018-03-17T04:18:42.441Z,15.67
2018-03-17T04:21:09.337Z,15.40
2018-03-17T04:23:36.209Z,15.47
2018-03-17T04:26:03.540Z,15.30
2018-03-17T04:28:30.495Z,15.90
2018-03-17T04:30:57.450Z,16.00
2018-03-17T04:33:24.292Z,15.70
2018-03-17T04:35:51.178Z,15.60
2018-03-17T04:38:18.121Z,15.53
2018-03-17T04:40:45.076Z,16.40
2018-03-17T04:43:12.033Z,15.97
2018-03-17T04:45:38.907Z,15.00
2018-03-17T04:48:05.854Z,15.43
2018-03-17T04:50:32.760Z,16.80
2018-03-17T04:52:59.625Z,17.30
2018-03-17T04:55:27.054Z,16.63
2018-03-17T04:57:53.935Z,15.80
2018-03-17T05:00:20.857Z,16.07
2018-03-17T05:02:47.722Z,17.60
2018-03-17T05:05:14.675Z,16.13
2018-03-17T05:07:41.525Z,17.23
2018-03-17T05:10:08.403Z,16.50
2018-03-17T05:12:35.325Z,16.83
2018-03-17T05:15:02.574Z,15.87
2018-03-17T05:17:29.882Z,16.43
2018-03-17T05:19:56.761Z,15.23
2018-03-17T05:22:23.613Z,15.80
2018-03-17T05:24:50.497Z,16.17
2018-03-17T05:27:17.354Z,16.63
2018-03-17T05:29:44.237Z,15.93
2018-03-17T05:32:11.506Z,15.73
2018-03-17T05:34:38.819Z,15.40
2018-03-17T05:37:05.669Z,15.63
2018-03-17T05:39:32.617Z,15.93
2018-03-17T05:41:59.573Z,14.83
2018-03-17T05:44:26.415Z,14.70
2018-03-17T05:46:53.296Z,17.03
2018-03-17T05:49:20.156Z,15.27
2018-03-17T05:51:47.070Z,15.47
2018-03-17T05:54:14.329Z,15.00
2018-03-17T05:56:41.644Z,15.70
2018-03-17T05:59:08.505Z,14.50
2018-03-17T06:01:35.446Z,16.70
2018-03-17T06:04:02.411Z,16.80
2018-03-17T06:06:29.374Z,14.20
2018-03-17T06:08:56.246Z,14.57
2018-03-17T06:11:23.106Z,15.60
2018-03-17T06:13:50.069Z,16.77
2018-03-17T06:16:17.000Z,16.07
2018-03-17T06:18:43.906Z,16.43
2018-03-17T06:21:10.832Z,14.77
2018-03-17T06:23:37.796Z,16.13
2018-03-17T06:26:04.668Z,16.33
2018-03-17T06:28:31.534Z,15.77
2018-03-17T06:30:58.401Z,14.33
2018-03-17T06:33:25.730Z,15.13
2018-03-17T06:35:52.669Z,14.93
2018-03-17T06:38:19.647Z,15.20
2018-03-17T06:40:46.598Z,15.10
2018-03-17T06:43:13.740Z,14.90
2018-03-17T06:45:40.625Z,15.50
2018-03-17T06:48:07.561Z,14.57
2018-03-17T06:50:34.618Z,13.63
2018-03-17T06:53:01.494Z,15.50
2018-03-17T06:55:28.482Z,15.40
2018-03-17T06:57:55.421Z,14.33
2018-03-17T07:00:22.384Z,14.83
2018-03-17T07:02:49.235Z,14.60
2018-03-17T07:05:16.217Z,14.13
2018-03-17T07:07:43.165Z,16.07
2018-03-17T07:10:10.024Z,14.80
2018-03-17T07:12:36.884Z,15.10
2018-03-17T07:15:03.742Z,15.10
2018-03-17T07:17:30.697Z,13.40
2018-03-17T07:19:57.560Z,14.37
2018-03-17T07:22:24.509Z,15.30
2018-03-17T07:24:52.383Z,13.97
2018-03-17T07:27:19.937Z,14.40
2018-03-17T07:29:47.266Z,13.10
2018-03-17T07:32:14.215Z,14.10
2018-03-17T07:34:41.554Z,14.40
2018-03-17T07:37:09.128Z,14.90
2018-03-17T07:39:36.469Z,13.53
2018-03-17T07:42:03.476Z,14.10
2018-03-17T07:44:30.513Z,13.73
2018-03-17T07:46:57.748Z,14.27
2018-03-17T07:49:25.063Z,14.03
2018-03-17T07:51:52.032Z,13.67
2018-03-17T07:54:18.891Z,14.67
2018-03-17T07:56:45.782Z,13.77
2018-03-17T07:59:12.641Z,12.20
2018-03-17T08:01:39.587Z,13.93
2018-03-17T08:04:06.470Z,13.30
2018-03-17T08:06:33.719Z,13.13
2018-03-17T08:09:00.631Z,12.90
2018-03-17T08:11:27.508Z,13.83
2018-03-17T08:13:54.833Z,14.93
2018-03-17T08:16:21.729Z,12.90
2018-03-17T08:18:48.762Z,12.73
2018-03-17T08:21:16.340Z,17.60
2018-03-17T08:23:43.242Z,13.40
2018-03-17T08:26:10.181Z,13.00
2018-03-17T08:28:37.139Z,13.63
2018-03-17T08:31:04.014Z,14.00
2018-03-17T08:33:30.865Z,11.80
2018-03-17T08:35:57.751Z,12.27
2018-03-17T08:38:24.617Z,13.37
2018-03-17T08:40:51.892Z,13.20
2018-03-17T08:43:19.162Z,12.63
2018-03-17T08:45:46.452Z,13.50
2018-03-17T08:48:13.312Z,13.90
2018-03-17T08:50:40.173Z,12.90
2018-03-17T08:53:07.170Z,12.50
2018-03-17T08:55:33.981Z,13.43
2018-03-17T08:58:00.908Z,13.90
2018-03-17T09:00:27.706Z,12.77
2018-03-17T09:02:54.588Z,11.43
2018-03-17T09:05:21.527Z,12.67
2018-03-17T09:07:48.462Z,12.77
2018-03-17T09:10:15.755Z,13.40
2018-03-17T09:12:42.614Z,12.63
2018-03-17T09:15:09.501Z,11.93
2018-03-17T09:17:36.435Z,13.53
2018-03-17T09:20:03.295Z,10.73
2018-03-17T09:22:30.235Z,12.60
2018-03-17T09:24:57.273Z,12.23
2018-03-17T09:27:24.548Z,13.10
2018-03-17T09:29:51.502Z,14.20
2018-03-17T09:32:18.369Z,11.27
2018-03-17T09:34:45.385Z,12.17
2018-03-17T09:37:12.285Z,12.70
2018-03-17T09:39:39.153Z,15.63
2018-03-17T09:42:06.106Z,12.70
2018-03-17T09:44:32.958Z,12.73
2018-03-17T09:46:59.867Z,12.13
2018-03-17T09:49:26.832Z,11.47
2018-03-17T09:51:53.754Z,13.07
2018-03-17T09:54:20.644Z,12.70
2018-03-17T09:56:47.610Z,13.67
2018-03-17T09:59:14.861Z,12.93
2018-03-17T10:01:41.738Z,11.73
2018-03-17T10:04:09.001Z,14.33
2018-03-17T10:06:36.073Z,12.10
2018-03-17T10:09:03.357Z,11.83
2018-03-17T10:11:30.291Z,11.97
2018-03-17T10:13:57.572Z,12.63
2018-03-17T10:16:24.490Z,12.33
2018-03-17T10:18:51.457Z,11.90
2018-03-17T10:21:18.359Z,12.07
2018-03-17T10:23:45.257Z,10.33
2018-03-17T10:26:12.143Z,13.17
2018-03-17T10:28:39.060Z,12.40
2018-03-17T10:31:05.932Z,11.47
2018-03-17T10:33:32.888Z,13.20
2018-03-17T10:36:00.055Z,11.27
2018-03-17T10:38:26.966Z,12.03
2018-03-17T10:40:54.236Z,12.27
2018-03-17T10:43:21.411Z,11.70
2018-03-17T10:45:48.285Z,11.73
2018-03-17T10:48:15.232Z,11.47
2018-03-17T10:50:42.134Z,11.50
2018-03-17T10:53:09.072Z,11.93
2018-03-17T10:55:35.975Z,12.00
2018-03-17T10:58:03.213Z,12.13
2018-03-17T11:00:30.337Z,11.00
2018-03-17T11:02:57.211Z,9.90
2018-03-17T11:05:24.199Z,11.00
2018-03-17T11:07:51.153Z,11.20
2018-03-17T11:10:18.079Z,10.63
2018-03-17T11:12:45.172Z,12.33
2018-03-17T11:15:12.157Z,11.13
2018-03-17T11:17:39.094Z,11.10
2018-03-17T11:20:06.086Z,11.20
2018-03-17T11:22:32.949Z,10.47
2018-03-17T11:24:59.853Z,11.27
2018-03-17T11:27:26.719Z,11.90
2018-03-17T11:29:53.668Z,11.97
2018-03-17T11:32:20.528Z,11.70
2018-03-17T11:34:47.402Z,12.63
2018-03-17T11:37:14.369Z,11.17
2018-03-17T11:39:41.267Z,11.80
2018-03-17T11:42:08.167Z,12.03
2018-03-17T11:44:35.104Z,11.87
2018-03-17T11:47:02.097Z,11.23
2018-03-17T11:49:29.052Z,11.70
2018-03-17T11:51:56.329Z,11.00
2018-03-17T11:54:23.331Z,10.97
2018-03-17T11:56:50.286Z,11.20
2018-03-17T11:59:17.323Z,11.17
2018-03-17T12:01:44.237Z,9.53
2018-03-17T12:04:11.527Z,11.67
2018-03-17T12:06:38.493Z,11.00
2018-03-17T12:09:05.363Z,10.40
2018-03-17T12:11:32.224Z,10.77
2018-03-17T12:13:59.442Z,11.80
2018-03-17T12:16:26.677Z,11.03
2018-03-17T12:18:53.600Z,10.23
2018-03-17T12:21:20.449Z,12.23
2018-03-17T12:23:47.332Z,10.23
2018-03-17T12:26:14.214Z,10.40
2018-03-17T12:28:41.070Z,11.00
2018-03-17T12:31:07.946Z,10.50
2018-03-17T12:33:35.182Z,10.60
2018-03-17T12:36:02.130Z,10.47
2018-03-17T12:38:29.078Z,9.70
2018-03-17T12:40:55.938Z,10.50
2018-03-17T12:43:22.826Z,10.07
2018-03-17T12:45:49.721Z,10.60
2018-03-17T12:48:17.111Z,11.33
2018-03-17T12:50:44.382Z,10.80
2018-03-17T12:53:11.225Z,10.20
2018-03-17T12:55:38.125Z,11.57
2018-03-17T12:58:04.983Z,11.47
2018-03-17T13:00:31.926Z,10.87
2018-03-17T13:02:58.869Z,10.80
2018-03-17T13:05:25.829Z,10.40
2018-03-17T13:07:52.684Z,10.77
2018-03-17T13:10:19.566Z,11.37
2018-03-17T13:12:46.561Z,10.70
2018-03-17T13:15:13.823Z,11.50
2018-03-17T13:17:40.766Z,11.53
2018-03-17T13:20:07.693Z,11.10
2018-03-17T13:22:46.506Z,11.60
2018-03-17T13:25:13.471Z,10.67
2018-03-17T13:30:35.644Z,10.60
2018-03-17T13:33:02.966Z,10.00
2018-03-17T13:35:41.764Z,9.87
2018-03-17T13:38:09.037Z,11.00
2018-03-17T13:40:43.466Z,11.37
2018-03-17T13:43:10.631Z,10.93
2018-03-17T13:45:37.894Z,9.87
2018-03-17T13:48:04.742Z,9.87
2018-03-17T13:50:31.629Z,10.20
2018-03-17T13:52:58.573Z,10.07
2018-03-17T13:55:25.907Z,10.60
2018-03-17T13:57:52.859Z,10.00
2018-03-17T14:00:19.900Z,10.47
2018-03-17T14:02:46.777Z,10.07
2018-03-17T14:05:13.708Z,9.10
2018-03-17T14:07:40.618Z,10.83
2018-03-17T14:10:07.843Z,10.03
2018-03-17T14:12:34.772Z,10.57
2018-03-17T14:15:01.645Z,10.80
2018-03-17T14:17:28.540Z,11.40
2018-03-17T14:19:55.961Z,10.33
2018-03-17T14:22:22.853Z,11.47
2018-03-17T14:24:49.718Z,11.23
2018-03-17T14:27:16.634Z,11.10
2018-03-17T14:29:43.508Z,11.40
2018-03-17T14:32:10.457Z,11.10
2018-03-17T14:34:37.413Z,11.23
2018-03-17T14:37:04.380Z,10.70
2018-03-17T14:39:31.325Z,10.73
2018-03-17T14:41:58.372Z,11.73
2018-03-17T14:44:25.259Z,11.37
2018-03-17T14:46:52.142Z,10.27
2018-03-17T14:49:18.982Z,11.23
2018-03-17T14:51:45.848Z,12.60
2018-03-17T14:54:12.777Z,12.50
2018-03-17T14:56:39.676Z,12.07
2018-03-17T14:59:06.602Z,11.20
2018-03-17T15:01:33.482Z,10.30
2018-03-17T15:04:00.406Z,12.30
2018-03-17T15:06:27.258Z,12.13
2018-03-17T15:08:54.211Z,11.73
2018-03-17T15:11:21.151Z,10.30
2018-03-17T15:13:48.077Z,12.13
2018-03-17T15:16:14.996Z,11.00
2018-03-17T15:18:41.836Z,11.07
2018-03-17T15:21:08.722Z,10.83
2018-03-17T15:23:35.647Z,11.77
2018-03-17T15:26:02.541Z,12.00
2018-03-17T15:28:29.553Z,11.10
2018-03-17T15:30:56.872Z,10.70
2018-03-17T15:33:23.763Z,12.17
2018-03-17T15:35:50.700Z,12.53
2018-03-17T15:38:17.654Z,11.10
2018-03-17T15:40:44.598Z,12.23
2018-03-17T15:43:11.751Z,10.33
2018-03-17T15:45:39.016Z,10.93
2018-03-17T15:48:05.942Z,11.73
2018-03-17T15:50:32.791Z,12.40
2018-03-17T15:52:59.730Z,10.53
2018-03-17T15:55:26.618Z,11.03
2018-03-17T15:57:53.526Z,10.67
2018-03-17T16:00:20.407Z,11.03
2018-03-17T16:02:47.298Z,10.57
2018-03-17T16:05:14.551Z,11.03
2018-03-17T16:07:41.477Z,11.90
2018-03-17T16:10:08.449Z,12.07
2018-03-17T16:12:35.318Z,10.47
2018-03-17T16:15:02.179Z,11.07
2018-03-17T16:17:29.057Z,12.33
2018-03-17T16:19:56.339Z,11.00
2018-03-17T16:22:23.614Z,11.67
2018-03-17T16:24:50.625Z,12.17
2018-03-17T16:27:17.555Z,11.63
2018-03-17T16:29:44.513Z,11.70
2018-03-17T16:32:11.477Z,11.00
2018-03-17T16:34:38.353Z,11.90
2018-03-17T16:37:05.248Z,10.93
2018-03-17T16:39:32.165Z,11.10
2018-03-17T16:41:59.108Z,11.87
2018-03-17T16:44:25.977Z,12.20
2018-03-17T16:46:53.123Z,12.63
2018-03-17T16:49:20.133Z,12.23
2018-03-17T16:51:47.105Z,12.30
2018-03-17T16:54:13.954Z,11.57
2018-03-17T16:56:40.813Z,11.03
2018-03-17T16:59:07.730Z,11.60
2018-03-17T17:01:34.706Z,11.67
2018-03-17T17:04:01.603Z,12.57
2018-03-17T17:06:28.861Z,12.40
2018-03-17T17:08:55.962Z,11.27
2018-03-17T17:11:23.282Z,11.67
2018-03-17T17:13:50.262Z,11.67
2018-03-17T17:16:17.141Z,12.00
2018-03-17T17:18:43.989Z,10.87
2018-03-17T17:21:11.297Z,10.90
2018-03-17T17:23:38.364Z,11.83
2018-03-17T17:26:05.318Z,12.50
2018-03-17T17:28:32.360Z,11.57
2018-03-17T17:30:59.251Z,10.90
2018-03-17T17:33:26.110Z,11.23
2018-03-17T17:35:53.100Z,11.20
2018-03-17T17:38:20.100Z,12.43
2018-03-17T17:40:46.997Z,11.47
2018-03-17T17:43:13.935Z,11.63
2018-03-17T17:45:40.927Z,11.03
2018-03-17T17:48:07.871Z,12.20
2018-03-17T17:50:34.790Z,10.13
2018-03-17T17:53:02.695Z,10.60
2018-03-17T17:55:29.701Z,9.97
2018-03-17T17:57:56.654Z,10.20
2018-03-17T18:00:23.527Z,10.97
2018-03-17T18:02:50.462Z,10.13
2018-03-17T18:05:17.542Z,11.33
2018-03-17T18:07:44.586Z,11.00
2018-03-17T18:10:11.620Z,9.60
2018-03-17T18:12:38.897Z,11.60
2018-03-17T18:15:05.766Z,11.37
2018-03-17T18:17:32.811Z,11.07
2018-03-17T18:19:59.767Z,11.33
2018-03-17T18:22:27.010Z,10.47
2018-03-17T18:24:54.326Z,11.30
2018-03-17T18:27:21.221Z,9.63
2018-03-17T18:29:48.097Z,10.40
2018-03-17T18:32:15.414Z,9.90
2018-03-17T18:34:42.357Z,9.47
2018-03-17T18:37:09.253Z,9.40
2018-03-17T18:39:36.094Z,10.60
2018-03-17T18:42:02.958Z,9.60
2018-03-17T18:44:29.834Z,9.47
2018-03-17T18:46:56.711Z,8.77
2018-03-17T18:49:24.017Z,9.93
2018-03-17T18:51:50.900Z,10.27
2018-03-17T18:54:17.841Z,11.07
2018-03-17T18:56:44.797Z,9.63
2018-03-17T18:59:11.765Z,9.90
2018-03-17T19:01:38.628Z,10.97
2018-03-17T19:04:05.570Z,10.40
2018-03-17T19:06:32.417Z,10.10
2018-03-17T19:08:59.412Z,9.53
2018-03-17T19:11:26.461Z,9.70
2018-03-17T19:13:53.357Z,11.60
2018-03-17T19:16:20.218Z,9.63
2018-03-17T19:18:47.488Z,10.30
2018-03-17T19:21:14.737Z,9.20
2018-03-17T19:23:41.627Z,11.03
2018-03-17T19:26:08.499Z,9.03
2018-03-17T19:28:35.382Z,11.17
2018-03-17T19:31:02.321Z,9.33
2018-03-17T19:33:29.188Z,9.50
2018-03-17T19:35:56.925Z,11.83
2018-03-17T19:38:24.244Z,9.60
2018-03-17T19:40:51.098Z,11.90
2018-03-17T19:43:17.977Z,9.80
2018-03-17T19:45:44.902Z,10.47
2018-03-17T19:48:11.841Z,10.50
2018-03-17T19:50:39.158Z,11.20
2018-03-17T19:53:06.044Z,11.23
2018-03-17T19:55:33.294Z,11.20
2018-03-17T19:58:00.182Z,11.60
2018-03-17T20:00:27.459Z,10.97
2018-03-17T20:02:54.785Z,11.23
2018-03-17T20:05:21.673Z,10.00
2018-03-17T20:07:48.961Z,11.67
2018-03-17T20:10:15.830Z,11.00
2018-03-17T20:12:42.694Z,10.70
2018-03-17T20:15:09.568Z,11.70
2018-03-17T20:17:36.472Z,11.13
2018-03-17T20:20:03.774Z,10.60
2018-03-17T20:22:30.620Z,10.53
2018-03-17T20:24:57.602Z,11.60
2018-03-17T20:27:24.496Z,11.80
2018-03-17T20:29:51.333Z,9.40
2018-03-17T20:32:18.272Z,11.77
2018-03-17T20:34:45.136Z,9.60
2018-03-17T20:37:12.171Z,10.17
2018-03-17T20:39:38.961Z,11.57
2018-03-17T20:42:05.947Z,12.67
2018-03-17T20:44:32.819Z,12.27
2018-03-17T20:47:00.129Z,12.57
2018-03-17T20:49:27.011Z,10.47
2018-03-17T20:51:54.023Z,11.37
2018-03-17T20:54:21.288Z,11.63
2018-03-17T20:56:48.452Z,11.90
2018-03-17T20:59:15.709Z,11.43
2018-03-17T21:01:42.609Z,12.60
2018-03-17T21:04:09.550Z,12.40
2018-03-17T21:06:36.430Z,14.17
2018-03-17T21:09:03.287Z,12.70
2018-03-17T21:11:30.224Z,15.97
2018-03-17T21:13:57.108Z,12.80
2018-03-17T21:16:23.993Z,10.93
2018-03-17T21:18:51.248Z,11.50
2018-03-17T21:21:18.453Z,12.57
2018-03-17T21:23:45.399Z,12.30
2018-03-17T21:26:12.716Z,11.90
2018-03-17T21:28:39.673Z,11.53
2018-03-17T21:31:06.617Z,11.83
2018-03-17T21:33:33.479Z,12.37
2018-03-17T21:36:00.418Z,12.20
2018-03-17T21:38:27.829Z,11.67
2018-03-17T21:40:54.697Z,12.47
2018-03-17T21:43:21.618Z,10.73
2018-03-17T21:45:48.514Z,12.07
2018-03-17T21:48:15.405Z,13.23
2018-03-17T21:50:42.298Z,12.03
2018-03-17T21:53:09.253Z,12.37
2018-03-17T21:55:36.292Z,14.97
2018-03-17T21:58:03.552Z,12.13
2018-03-17T22:00:30.620Z,12.40
2018-03-17T22:02:57.907Z,14.57
2018-03-17T22:05:24.882Z,13.43
2018-03-17T22:07:51.808Z,11.00
2018-03-17T22:10:19.057Z,13.03
2018-03-17T22:12:46.357Z,11.83
2018-03-17T22:15:13.233Z,13.07
2018-03-17T22:17:40.100Z,13.07
2018-03-17T22:20:07.039Z,12.67
2018-03-17T22:22:33.986Z,14.03
2018-03-17T22:25:00.860Z,12.60
2018-03-17T22:27:27.740Z,12.80
2018-03-17T22:29:54.633Z,12.50
2018-03-17T22:32:21.500Z,13.80
2018-03-17T22:34:48.611Z,13.33
2018-03-17T22:37:15.461Z,13.30
2018-03-17T22:39:42.332Z,13.50
2018-03-17T22:42:09.249Z,12.40
2018-03-17T22:44:36.245Z,13.20
2018-03-17T22:47:03.226Z,12.23
2018-03-17T22:49:30.531Z,14.37
2018-03-17T22:51:57.402Z,12.77
2018-03-17T22:54:24.375Z,13.47
2018-03-17T22:56:51.315Z,14.60
2018-03-17T22:59:18.234Z,13.50
2018-03-17T23:01:45.078Z,12.43
2018-03-17T23:04:12.110Z,12.67
2018-03-17T23:06:39.058Z,13.80
2018-03-17T23:09:05.941Z,13.40
2018-03-17T23:11:32.801Z,12.13
2018-03-17T23:13:59.719Z,14.70
2018-03-17T23:16:26.809Z,15.73
2018-03-17T23:18:53.680Z,14.07
2018-03-17T23:21:20.594Z,13.73
2018-03-17T23:23:47.649Z,13.40
2018-03-17T23:26:14.645Z,13.23
2018-03-17T23:28:41.521Z,14.87
2018-03-17T23:31:08.440Z,13.23
2018-03-17T23:33:35.319Z,13.00
2018-03-17T23:36:02.258Z,12.30
2018-03-17T23:38:29.212Z,13.67
2018-03-17T23:40:56.141Z,13.40
2018-03-17T23:43:23.037Z,14.23
2018-03-17T23:45:50.007Z,12.80
2018-03-17T23:48:16.965Z,15.43
2018-03-17T23:50:43.822Z,14.30
2018-03-17T23:53:11.103Z,14.90
2018-03-17T23:55:38.053Z,14.80
2018-03-17T23:58:04.998Z,12.43
